Terminal Aerodrome Forecast
Issued by NWS Grand Forks, ND

Home | Current Version | Previous Version | Text Only | Print | Product List | Glossary On
Versions: 1 2 3 4 5 6 7 8 9 10 11 12 13 14 15 16
000
FTUS43 KFGF 220500
TAFGFK
TAF
KGFK 220537Z 2206/2306 14012KT P6SM OVC008
     FM221000 14010KT 4SM BR OVC005
     FM221900 10009KT 5SM -RASN BR OVC005
     FM230000 05010KT 3SM -SN OVC007=

USA.gov is the U.S. government's official web portal to all federal, state and local government web resources and services.